createdAt,value
2018-08-28T00:03:43.102Z,99.9
2018-08-28T00:08:45.717Z,99.9
2018-08-28T00:13:47.988Z,99.9
2018-08-28T00:18:50.425Z,99.9
2018-08-28T00:23:52.872Z,99.9
2018-08-28T00:28:55.352Z,99.9
2018-08-28T00:33:57.923Z,99.9
2018-08-28T00:39:00.272Z,99.9
2018-08-28T00:44:02.829Z,99.9
2018-08-28T00:49:05.175Z,99.9
2018-08-28T00:54:07.715Z,99.9
2018-08-28T00:59:10.100Z,99.9
2018-08-28T01:04:12.887Z,99.9
2018-08-28T01:09:15.008Z,99.9
2018-08-28T01:14:17.461Z,99.9
2018-08-28T01:19:19.918Z,99.9
2018-08-28T01:24:22.415Z,99.9
2018-08-28T01:29:24.848Z,99.9
2018-08-28T01:39:29.778Z,99.9
2018-08-28T01:44:33.680Z,99.9
2018-08-28T01:49:34.699Z,99.9
2018-08-28T01:54:37.122Z,99.9
2018-08-28T01:59:39.578Z,99.9
2018-08-28T02:04:42.040Z,99.9
2018-08-28T02:09:44.625Z,99.9
2018-08-28T02:14:47.120Z,99.9
2018-08-28T02:19:49.568Z,99.9
2018-08-28T02:24:51.918Z,99.9
2018-08-28T02:29:54.358Z,99.9
2018-08-28T02:34:56.830Z,99.9
2018-08-28T02:39:59.527Z,99.9
2018-08-28T02:45:01.750Z,99.9
2018-08-28T02:50:04.182Z,99.9
2018-08-28T02:55:06.688Z,99.9
2018-08-28T03:00:09.239Z,99.9
2018-08-28T03:05:11.575Z,99.9
2018-08-28T03:10:15.115Z,99.9
2018-08-28T03:15:16.466Z,99.9
2018-08-28T03:20:18.909Z,99.9
2018-08-28T03:25:21.541Z,99.9
2018-08-28T03:30:23.850Z,99.9
2018-08-28T03:35:26.297Z,99.9
2018-08-28T03:40:28.763Z,99.9
2018-08-28T03:45:31.312Z,99.9
2018-08-28T03:50:33.672Z,99.9
2018-08-28T03:55:36.154Z,99.9
2018-08-28T04:00:38.578Z,99.9
2018-08-28T04:05:41.078Z,99.9
2018-08-28T04:10:43.527Z,99.9
2018-08-28T04:15:46.293Z,99.9
2018-08-28T04:20:48.419Z,99.9
2018-08-28T04:25:57.047Z,99.9
2018-08-28T04:30:54.630Z,99.9
2018-08-28T04:35:55.795Z,99.9
2018-08-28T04:40:58.241Z,99.9
2018-08-28T04:46:00.876Z,99.9
2018-08-28T04:51:03.240Z,99.9
2018-08-28T04:56:08.364Z,99.9
2018-08-28T05:01:12.114Z,99.9
2018-08-28T05:06:10.531Z,99.9
2018-08-28T05:11:13.025Z,99.9
2018-08-28T05:16:15.541Z,99.9
2018-08-28T05:21:18.052Z,99.9
2018-08-28T05:26:20.512Z,99.9
2018-08-28T05:31:22.840Z,99.9
2018-08-28T05:36:25.302Z,99.9
2018-08-28T05:41:27.736Z,99.9
2018-08-28T05:46:30.227Z,99.9
2018-08-28T05:51:33.422Z,99.9
2018-08-28T05:56:35.122Z,99.9
2018-08-28T06:01:37.619Z,99.9
2018-08-28T06:06:40.038Z,99.9
2018-08-28T06:11:42.840Z,99.9
2018-08-28T06:16:48.333Z,99.9
2018-08-28T06:21:47.442Z,99.9
2018-08-28T06:26:49.878Z,99.9
2018-08-28T06:31:52.641Z,99.9
2018-08-28T06:36:54.784Z,99.9
2018-08-28T06:41:57.322Z,99.9
2018-08-28T06:46:59.917Z,99.9
2018-08-28T06:52:02.247Z,97.1
2018-08-28T06:57:04.808Z,97.3
2018-08-28T07:02:10.831Z,99.9
2018-08-28T07:07:09.575Z,97
2018-08-28T07:12:11.990Z,96
2018-08-28T07:17:14.510Z,91.7
2018-08-28T07:22:16.935Z,87.6
2018-08-28T07:27:19.515Z,90.2
2018-08-28T07:32:21.817Z,89.8
2018-08-28T07:37:24.336Z,89.2
2018-08-28T15:34:40.812Z,2.4
2018-08-28T15:39:43.223Z,2.7
2018-08-28T15:44:45.525Z,1
2018-08-28T15:49:48.092Z,1
2018-08-28T15:54:50.378Z,1
2018-08-28T15:59:52.854Z,1
2018-08-28T16:04:55.590Z,1
2018-08-28T16:09:57.747Z,1
2018-08-28T16:15:00.206Z,1
2018-08-28T16:20:02.731Z,1
2018-08-28T16:25:05.219Z,1
2018-08-28T16:30:07.608Z,1
2018-08-28T16:35:10.069Z,1
2018-08-28T16:40:12.520Z,1
2018-08-28T16:45:15.043Z,2.8
2018-08-28T16:50:17.542Z,1.8
2018-08-28T16:55:19.885Z,3.3
2018-08-28T17:00:22.474Z,3.9
2018-08-28T17:05:24.806Z,6.2
2018-08-28T17:10:27.243Z,7.8
2018-08-28T17:15:29.767Z,9.1
2018-08-28T17:20:32.341Z,9
2018-08-28T17:25:34.630Z,10.4
2018-08-28T17:30:37.140Z,12.5
2018-08-28T17:35:39.609Z,14.2
2018-08-28T17:40:42.051Z,16.4
2018-08-28T17:45:44.592Z,16.4
2018-08-28T17:50:47.150Z,17.6
2018-08-28T17:55:49.418Z,20.3
2018-08-28T18:05:54.295Z,29.1
2018-08-28T18:10:56.795Z,28.9
2018-08-28T18:15:59.315Z,31.9
2018-08-28T18:21:01.725Z,33.4
2018-08-28T18:26:04.167Z,39.5
2018-08-28T18:31:06.606Z,44.4
2018-08-28T18:36:09.094Z,48.8
2018-08-28T18:41:11.658Z,51.5
2018-08-28T18:46:14.036Z,55.9
2018-08-28T18:51:16.414Z,63.8
2018-08-28T18:56:18.885Z,68.8
2018-08-28T19:01:21.356Z,70.9
2018-08-28T19:06:23.911Z,71.8
2018-08-28T19:11:26.423Z,74.8
2018-08-28T19:16:28.698Z,77.9
2018-08-28T19:21:31.459Z,85.8
2018-08-28T19:26:33.607Z,88.2
2018-08-28T19:31:36.160Z,91.1
2018-08-28T19:36:38.764Z,93
2018-08-28T19:41:40.984Z,97.2
2018-08-28T19:46:43.450Z,97.8
2018-08-28T19:51:45.940Z,98.4
2018-08-28T19:56:48.417Z,99.9
2018-08-28T20:01:50.811Z,99.9
2018-08-28T20:06:53.437Z,99.9
2018-08-28T20:11:55.726Z,99.9
2018-08-28T20:16:58.271Z,99.9
2018-08-28T20:22:00.973Z,99.9
2018-08-28T20:27:03.206Z,99.9
2018-08-28T20:32:05.801Z,99.9
2018-08-28T20:37:08.148Z,99.9
2018-08-28T20:42:10.543Z,99.9
2018-08-28T20:47:12.969Z,99.9
2018-08-28T20:52:15.707Z,99.9
2018-08-28T20:57:17.859Z,99.9
2018-08-28T21:02:20.398Z,99.9
2018-08-28T21:07:22.886Z,99.9
2018-08-28T21:12:25.223Z,99.9
2018-08-28T21:17:27.681Z,99.9
2018-08-28T21:22:30.154Z,99.9
2018-08-28T21:27:32.604Z,99.9
2018-08-28T21:32:35.139Z,99.9
2018-08-28T21:37:37.627Z,99.9
2018-08-28T21:42:39.995Z,99.9
2018-08-28T21:47:42.660Z,99.9
2018-08-28T21:52:44.891Z,99.9
2018-08-28T21:57:47.590Z,99.9
2018-08-28T22:02:50.463Z,99.9
2018-08-28T22:07:52.911Z,99.9
2018-08-28T22:12:56.435Z,99.9
2018-08-28T22:17:57.363Z,99.9
2018-08-28T22:22:59.873Z,99.9
2018-08-28T22:28:02.116Z,99.9
2018-08-28T22:33:04.651Z,99.9
2018-08-28T22:38:07.022Z,99.9
2018-08-28T22:43:09.482Z,99.9
2018-08-28T22:48:11.930Z,99.9
2018-08-28T22:53:14.661Z,99.9
2018-08-28T22:58:16.847Z,99.9
2018-08-28T23:03:19.423Z,99.9
2018-08-28T23:08:21.927Z,99.9
2018-08-28T23:13:24.387Z,99.9
2018-08-28T23:18:26.714Z,99.9
2018-08-28T23:23:29.199Z,99.9
2018-08-28T23:28:31.627Z,99.9
2018-08-28T23:33:34.114Z,99.9
2018-08-28T23:38:36.511Z,99.9
2018-08-28T23:43:38.999Z,99.9
2018-08-28T23:48:41.440Z,99.9
2018-08-28T23:53:43.928Z,99.9
2018-08-28T23:58:46.510Z,99.9
